Time;durP1;ratioP1;P1;durP2;ratioP2;P2;SDS_P1;SDS_P2;PMS_P1;PMS_P2;Temp;Humidity;BMP_temperature;BMP_pressure;BME280_temperature;BME280_humidity;BME280_pressure;Samples;Min_cycle;Max_cycle;Signal;HPM_P1;HPM_P2
2023/09/13 00:00:48;;;;;;;1.08;0.77;;;;;;;14.96;74.13;94856.38;5054471;28;20257;-73
2023/09/13 00:03:14;;;;;;;0.30;0.30;;;;;;;14.92;74.36;94850.81;5057615;28;21001;-74
2023/09/13 00:05:42;;;;;;;0.10;0.10;;;;;;;14.89;74.55;94844.16;5052203;28;20230;-74
2023/09/13 00:08:10;;;;;;;0.20;0.20;;;;;;;14.87;74.24;94848.34;5052728;28;20211;-74
2023/09/13 00:10:37;;;;;;;0.75;0.75;;;;;;;14.82;74.24;94841.22;5052265;28;20299;-74
2023/09/13 00:13:04;;;;;;;0.20;0.20;;;;;;;14.80;75.03;94850.88;5051879;28;20313;-74
2023/09/13 00:15:31;;;;;;;1.38;0.50;;;;;;;14.80;74.51;94848.94;5052152;28;20215;-75
2023/09/13 00:17:58;;;;;;;0.20;0.20;;;;;;;14.83;74.90;94845.53;5051970;28;20211;-74
2023/09/13 00:20:24;;;;;;;0.20;0.20;;;;;;;14.76;74.85;94842.59;5052168;28;20215;-74
2023/09/13 00:22:51;;;;;;;0.40;0.40;;;;;;;14.69;74.62;94850.59;5051569;28;20782;-74
2023/09/13 00:25:19;;;;;;;0.10;0.10;;;;;;;14.64;74.99;94848.09;5052029;28;20231;-74
2023/09/13 00:27:46;;;;;;;0.20;0.20;;;;;;;14.68;74.54;94857.19;5052026;28;20291;-75
2023/09/13 00:30:13;;;;;;;0.20;0.20;;;;;;;14.67;74.40;94854.81;5052190;28;20207;-74
2023/09/13 00:32:40;;;;;;;0.20;0.20;;;;;;;14.64;73.93;94856.28;5051427;28;20208;-74
2023/09/13 00:35:07;;;;;;;0.17;0.17;;;;;;;14.66;73.58;94854.00;5051923;28;20203;-74
2023/09/13 00:37:33;;;;;;;0.20;0.20;;;;;;;14.63;73.99;94848.44;5051640;28;20207;-74
2023/09/13 00:40:00;;;;;;;0.10;0.10;;;;;;;14.66;74.03;94845.81;5051882;28;20207;-75
2023/09/13 00:42:29;;;;;;;0.20;0.20;;;;;;;14.58;74.13;94852.22;5051884;28;20211;-74
2023/09/13 00:44:56;;;;;;;0.20;0.20;;;;;;;14.65;73.98;94855.16;5051747;28;20227;-74
2023/09/13 00:47:23;;;;;;;0.20;0.20;;;;;;;14.41;75.21;94841.63;5051534;28;20214;-74
2023/09/13 00:49:50;;;;;;;0.22;0.22;;;;;;;14.49;75.49;94857.03;5051440;28;20219;-74
2023/09/13 00:52:17;;;;;;;0.20;0.20;;;;;;;14.35;75.23;94853.88;5051746;28;20273;-74
2023/09/13 00:54:45;;;;;;;1.15;0.75;;;;;;;14.35;75.33;94853.88;5051310;28;20231;-74
2023/09/13 00:57:12;;;;;;;0.47;0.47;;;;;;;14.37;74.93;94860.56;5051878;28;20536;-74
2023/09/13 00:59:41;;;;;;;0.10;0.10;;;;;;;14.35;75.07;94851.94;5050968;28;20220;-74
2023/09/13 01:02:08;;;;;;;0.20;0.20;;;;;;;14.35;74.78;94854.66;5058944;28;20592;-74
2023/09/13 01:04:39;;;;;;;0.10;0.10;;;;;;;14.45;74.96;94853.44;5050903;28;20231;-74
2023/09/13 01:07:08;;;;;;;0.20;0.20;;;;;;;14.38;75.30;94862.16;5038609;28;20211;-74
2023/09/13 01:09:35;;;;;;;0.10;0.10;;;;;;;14.30;76.03;94862.28;5051184;28;20212;-74
2023/09/13 01:12:02;;;;;;;0.20;0.20;;;;;;;14.24;76.40;94867.19;5051355;28;21058;-74
2023/09/13 01:14:28;;;;;;;0.20;0.20;;;;;;;14.29;76.32;94860.72;5051044;28;20989;-74
2023/09/13 01:17:01;;;;;;;0.20;0.20;;;;;;;14.26;76.57;94855.94;5050951;28;20219;-74
2023/09/13 01:19:52;;;;;;;0.30;0.30;;;;;;;14.31;76.82;94855.72;5050848;28;20290;-74
2023/09/13 01:22:35;;;;;;;0.20;0.20;;;;;;;14.30;76.70;94860.38;5051438;28;20235;-74
2023/09/13 01:25:20;;;;;;;1.30;0.80;;;;;;;14.32;76.72;94865.47;5050546;28;20223;-74
2023/09/13 01:27:50;;;;;;;0.20;0.20;;;;;;;14.21;76.57;94854.28;5050784;28;20249;-73
2023/09/13 01:30:20;;;;;;;0.10;0.10;;;;;;;14.16;76.76;94858.00;5050680;28;20268;-73
2023/09/13 01:32:48;;;;;;;1.45;0.70;;;;;;;14.18;76.63;94854.94;5050619;28;20545;-73
2023/09/13 01:35:15;;;;;;;0.65;0.55;;;;;;;14.17;76.53;94854.16;5050128;28;20556;-73
2023/09/13 01:37:41;;;;;;;0.50;0.50;;;;;;;14.02;77.40;94851.34;5050396;28;20211;-73
2023/09/13 01:40:09;;;;;;;0.13;0.13;;;;;;;13.88;78.22;94851.72;5050785;28;20211;-73
2023/09/13 01:42:38;;;;;;;0.20;0.20;;;;;;;13.87;77.95;94863.75;5050225;28;20218;-74
2023/09/13 01:45:08;;;;;;;0.20;0.20;;;;;;;13.83;78.19;94860.91;5050334;28;20231;-73
2023/09/13 01:47:38;;;;;;;0.20;0.20;;;;;;;13.79;78.89;94867.38;5050165;28;20265;-73
2023/09/13 01:50:06;;;;;;;0.10;0.10;;;;;;;13.80;78.48;94868.97;5050231;28;20548;-74
2023/09/13 01:52:34;;;;;;;0.10;0.10;;;;;;;13.80;77.96;94868.97;5050193;28;20207;-73
2023/09/13 01:55:00;;;;;;;0.17;0.17;;;;;;;13.82;78.35;94863.97;5050239;28;20211;-74
2023/09/13 01:57:27;;;;;;;0.20;0.20;;;;;;;13.76;78.84;94859.91;5050421;28;20245;-73
2023/09/13 01:59:54;;;;;;;0.10;0.10;;;;;;;13.74;78.72;94867.59;5050046;28;20223;-73
2023/09/13 02:02:21;;;;;;;0.10;0.10;;;;;;;13.64;79.53;94868.06;5057815;28;20276;-73
2023/09/13 02:04:49;;;;;;;0.20;0.20;;;;;;;13.61;80.30;94868.75;5049716;28;20227;-74
2023/09/13 02:07:16;;;;;;;0.20;0.20;;;;;;;13.61;80.10;94866.81;5050408;28;20211;-73
2023/09/13 02:09:43;;;;;;;0.20;0.20;;;;;;;13.63;79.51;94861.84;5050318;28;20212;-73
2023/09/13 02:12:12;;;;;;;0.20;0.20;;;;;;;13.72;79.16;94858.97;5050104;28;20654;-74
2023/09/13 02:14:39;;;;;;;1.02;0.60;;;;;;;13.63;79.56;94866.50;5050150;28;20232;-74
2023/09/13 02:17:07;;;;;;;0.98;0.70;;;;;;;13.68;79.21;94866.25;5050351;28;20200;-73
2023/09/13 02:19:34;;;;;;;0.57;0.57;;;;;;;13.68;78.56;94867.03;5050035;28;20214;-73
2023/09/13 02:22:03;;;;;;;0.50;0.50;;;;;;;13.75;78.23;94861.03;5049916;28;20218;-74
2023/09/13 02:24:30;;;;;;;1.13;1.02;;;;;;;13.70;78.51;94861.25;5049999;28;20215;-73
2023/09/13 02:26:57;;;;;;;0.60;0.60;;;;;;;13.71;78.74;94857.41;5049907;28;20234;-73
2023/09/13 02:29:24;;;;;;;0.60;0.60;;;;;;;13.66;79.56;94861.16;5047098;28;20207;-73
2023/09/13 02:31:51;;;;;;;0.88;0.60;;;;;;;13.73;79.41;94855.94;5050394;28;20656;-74
2023/09/13 02:34:17;;;;;;;0.20;0.20;;;;;;;13.55;79.68;94854.56;5052412;28;20238;-73
2023/09/13 02:36:45;;;;;;;0.22;0.22;;;;;;;13.51;79.96;94854.47;5053633;28;20214;-74
2023/09/13 02:39:31;;;;;;;0.10;0.10;;;;;;;13.51;79.92;94859.91;5049581;28;20203;-73
2023/09/13 02:41:58;;;;;;;0.17;0.17;;;;;;;13.53;79.87;94862.25;5049578;28;20208;-73
2023/09/13 02:44:25;;;;;;;0.13;0.13;;;;;;;13.57;79.17;94862.38;5049608;28;20207;-73
2023/09/13 02:46:51;;;;;;;0.50;0.50;;;;;;;13.50;79.52;94869.22;5056836;28;20223;-74
2023/09/13 02:49:18;;;;;;;0.15;0.15;;;;;;;13.62;79.03;94870.34;5053812;28;20238;-73
2023/09/13 02:51:47;;;;;;;0.10;0.10;;;;;;;13.76;78.60;94870.78;5053340;28;20276;-73
2023/09/13 02:54:14;;;;;;;0.10;0.10;;;;;;;13.71;78.50;94879.19;5053483;28;20211;-73
2023/09/13 02:56:42;;;;;;;0.25;0.25;;;;;;;13.60;78.73;94883.50;5053412;28;20212;-73
2023/09/13 02:59:08;;;;;;;0.20;0.20;;;;;;;13.53;79.10;94884.84;5053515;28;20231;-73
2023/09/13 03:01:35;;;;;;;0.10;0.10;;;;;;;13.52;78.85;94883.28;5055565;28;20238;-73
2023/09/13 03:04:02;;;;;;;0.20;0.20;;;;;;;13.47;79.41;94885.41;5053624;28;20207;-73
2023/09/13 03:06:29;;;;;;;0.10;0.10;;;;;;;13.40;79.90;94885.97;5053242;28;20231;-73
2023/09/13 03:08:55;;;;;;;0.20;0.20;;;;;;;13.41;80.16;94882.09;5052683;28;20315;-73
2023/09/13 03:11:22;;;;;;;0.20;0.20;;;;;;;13.35;80.43;94882.69;5053294;28;20291;-73
2023/09/13 03:13:51;;;;;;;0.20;0.20;;;;;;;13.27;80.97;94889.00;5052764;28;20232;-73
2023/09/13 03:16:18;;;;;;;0.20;0.20;;;;;;;13.34;80.89;94894.69;5052960;28;20247;-73
2023/09/13 03:18:47;;;;;;;1.95;0.80;;;;;;;13.30;80.74;94891.84;5052970;28;20313;-73
2023/09/13 03:21:14;;;;;;;0.10;0.10;;;;;;;13.26;80.88;94890.13;5049447;28;20219;-73
2023/09/13 03:23:43;;;;;;;0.20;0.20;;;;;;;13.22;80.75;94884.59;5054277;28;20615;-73
2023/09/13 03:26:14;;;;;;;0.20;0.20;;;;;;;13.24;81.44;94892.44;5052468;28;20230;-73
2023/09/13 03:28:43;;;;;;;0.20;0.20;;;;;;;13.16;81.59;94892.16;5053047;28;20306;-73
2023/09/13 03:31:11;;;;;;;0.20;0.20;;;;;;;13.28;80.91;94899.56;5052914;28;20603;-74
2023/09/13 03:33:39;;;;;;;0.10;0.10;;;;;;;13.27;81.10;94897.97;5052506;28;20286;-75
2023/09/13 03:36:06;;;;;;;0.10;0.10;;;;;;;13.27;81.22;94897.97;5052574;28;20214;-74
2023/09/13 03:38:33;;;;;;;0.20;0.20;;;;;;;13.30;81.50;94889.13;5052996;28;20575;-74
2023/09/13 03:41:02;;;;;;;0.20;0.20;;;;;;;13.15;81.92;94890.56;5052581;28;20567;-73
2023/09/13 03:43:29;;;;;;;0.75;0.60;;;;;;;13.12;82.36;94887.69;5052874;28;20277;-73
2023/09/13 03:45:56;;;;;;;0.60;0.60;;;;;;;13.18;82.99;94888.31;5052499;28;20234;-73
2023/09/13 03:48:24;;;;;;;0.93;0.82;;;;;;;13.21;82.81;94893.88;5040248;28;20290;-74
2023/09/13 03:50:51;;;;;;;1.33;1.00;;;;;;;13.16;82.91;94889.44;5052018;28;20329;-74
2023/09/13 03:53:18;;;;;;;1.58;0.90;;;;;;;13.15;82.86;94895.22;5052802;28;20277;-74
2023/09/13 03:55:45;;;;;;;0.68;0.68;;;;;;;13.11;83.51;94894.28;5052320;28;20200;-74
2023/09/13 03:58:12;;;;;;;0.77;0.57;;;;;;;13.21;82.93;94893.88;5051598;28;20652;-74
2023/09/13 04:00:39;;;;;;;1.75;1.13;;;;;;;13.28;82.78;94894.13;5053277;28;20563;-74
2023/09/13 04:03:06;;;;;;;0.15;0.15;;;;;;;13.31;82.94;94901.59;5053524;28;20219;-74
2023/09/13 04:05:34;;;;;;;0.43;0.43;;;;;;;13.32;82.78;94902.41;5052061;28;20231;-77
2023/09/13 04:08:02;;;;;;;0.32;0.32;;;;;;;13.40;81.95;94902.28;5052174;28;20211;-76
2023/09/13 04:10:29;;;;;;;0.10;0.10;;;;;;;13.43;81.67;94896.19;5052043;28;20203;-77
2023/09/13 04:12:56;;;;;;;0.60;0.60;;;;;;;13.51;81.55;94902.66;5051242;28;20689;-77
2023/09/13 04:15:23;;;;;;;0.10;0.10;;;;;;;13.66;81.31;94898.47;5052221;28;20196;-77
2023/09/13 04:17:50;;;;;;;0.20;0.20;;;;;;;13.87;80.98;94901.88;5051682;28;20208;-77
2023/09/13 04:20:17;;;;;;;0.20;0.20;;;;;;;14.22;79.97;94894.78;5051900;28;20291;-77
2023/09/13 04:22:45;;;;;;;0.10;0.10;;;;;;;14.80;78.33;94887.13;5052508;28;20199;-77
2023/09/13 04:25:12;;;;;;;0.10;0.10;;;;;;;15.38;75.42;94890.22;5052261;28;20200;-77
2023/09/13 04:27:38;;;;;;;0.20;0.20;;;;;;;16.17;72.87;94888.25;5051844;28;20199;-80
2023/09/13 04:30:06;;;;;;;0.20;0.20;;;;;;;16.99;70.60;94879.81;5051974;28;20660;-77
2023/09/13 04:32:34;;;;;;;0.20;0.20;;;;;;;17.47;67.67;94883.06;5051912;28;20211;-77
2023/09/13 04:35:00;;;;;;;0.88;0.47;;;;;;;17.89;66.17;94883.00;5051610;28;20212;-77
2023/09/13 04:37:27;;;;;;;0.20;0.20;;;;;;;18.71;62.88;94878.72;5051764;28;20204;-77
2023/09/13 04:39:55;;;;;;;0.65;0.65;;;;;;;19.19;61.06;94882.41;5051851;28;20565;-78
2023/09/13 04:42:22;;;;;;;0.20;0.20;;;;;;;19.90;59.18;94874.06;5051595;28;20216;-77
2023/09/13 04:44:49;;;;;;;0.20;0.20;;;;;;;20.43;56.98;94879.97;5051343;28;20214;-76
2023/09/13 04:47:16;;;;;;;0.10;0.10;;;;;;;21.07;55.60;94867.28;5047546;28;20224;-77
2023/09/13 04:49:42;;;;;;;1.90;0.88;;;;;;;21.61;53.39;94866.25;5041991;28;20208;-76
2023/09/13 04:52:10;;;;;;;0.75;0.75;;;;;;;21.97;52.33;94864.31;5051750;28;20673;-77
2023/09/13 04:54:37;;;;;;;0.20;0.20;;;;;;;22.08;51.20;94863.53;5051548;28;20235;-77
2023/09/13 04:57:05;;;;;;;0.20;0.20;;;;;;;22.55;50.30;94865.81;5051281;28;20211;-77
2023/09/13 04:59:42;;;;;;;1.13;0.88;;;;;;;22.64;49.91;94866.19;5051413;28;20238;-77
2023/09/13 05:02:11;;;;;;;1.20;1.05;;;;;;;22.85;49.46;94867.34;5053661;28;20218;-77
2023/09/13 05:04:38;;;;;;;0.40;0.40;;;;;;;23.14;48.54;94863.28;5051072;28;20315;-77
2023/09/13 05:07:05;;;;;;;0.20;0.20;;;;;;;23.12;48.11;94868.41;5050671;28;20219;-77
2023/09/13 05:09:32;;;;;;;0.20;0.20;;;;;;;23.87;46.37;94860.47;5050952;28;20195;-77
2023/09/13 05:11:59;;;;;;;1.75;1.38;;;;;;;24.47;45.13;94864.72;5051028;28;20206;-76
2023/09/13 05:14:27;;;;;;;0.30;0.30;;;;;;;24.99;44.14;94856.28;5047670;28;20698;-78
2023/09/13 05:16:54;;;;;;;0.88;0.73;;;;;;;25.17;43.50;94862.38;5050264;28;20212;-78
2023/09/13 05:19:21;;;;;;;1.50;1.02;;;;;;;25.23;43.18;94859.94;5041558;28;20207;-77
2023/09/13 05:21:48;;;;;;;1.58;1.33;;;;;;;25.77;42.38;94853.25;5047816;28;20250;-77
2023/09/13 05:24:15;;;;;;;2.22;1.00;;;;;;;25.33;42.78;94859.78;5047041;28;20606;-78
2023/09/13 05:26:41;;;;;;;1.27;1.10;;;;;;;25.77;41.59;94855.22;5039464;28;20231;-77
2023/09/13 05:29:08;;;;;;;2.50;1.77;;;;;;;25.74;41.83;94861.63;5042756;28;20211;-74
2023/09/13 05:31:36;;;;;;;1.70;1.10;;;;;;;25.95;40.86;94861.28;5047229;28;20200;-74
2023/09/13 05:34:03;;;;;;;1.20;1.10;;;;;;;26.14;41.45;94865.34;5045126;28;20273;-74
2023/09/13 05:36:30;;;;;;;1.02;0.90;;;;;;;26.23;40.35;94859.25;5042682;28;20653;-74
2023/09/13 05:38:57;;;;;;;1.52;1.38;;;;;;;26.42;39.99;94861.31;5041677;28;20207;-74
2023/09/13 05:41:24;;;;;;;2.55;1.75;;;;;;;26.76;39.87;94861.91;5045930;28;20208;-76
2023/09/13 05:43:51;;;;;;;2.30;1.50;;;;;;;26.70;39.43;94855.25;5042927;28;20207;-76
2023/09/13 05:46:24;;;;;;;1.52;1.30;;;;;;;27.84;37.14;94850.13;5040101;28;20231;-75
2023/09/13 05:48:52;;;;;;;1.48;1.27;;;;;;;27.58;37.71;94852.69;5040390;28;20235;-74
2023/09/13 05:51:24;;;;;;;2.22;1.25;;;;;;;27.59;38.29;94857.06;5042870;28;20203;-75
2023/09/13 05:53:54;;;;;;;2.38;1.50;;;;;;;27.47;37.71;94857.66;5042733;28;20269;-76
2023/09/13 05:56:21;;;;;;;1.75;1.58;;;;;;;27.34;38.29;94853.97;5040208;28;20247;-73
2023/09/13 05:58:48;;;;;;;1.00;0.90;;;;;;;27.63;37.22;94850.59;5044112;28;20245;-74
2023/09/13 06:01:15;;;;;;;1.65;1.27;;;;;;;25.80;39.46;94862.72;5045137;28;20208;-76
2023/09/13 06:03:42;;;;;;;1.55;1.02;;;;;;;26.29;39.67;94868.69;5043521;28;20249;-73
2023/09/13 06:06:11;;;;;;;2.13;0.90;;;;;;;27.21;38.49;94858.63;5043537;28;20224;-75
2023/09/13 06:08:40;;;;;;;1.90;1.48;;;;;;;26.38;39.24;94855.81;5045099;28;20208;-73
2023/09/13 06:11:07;;;;;;;0.85;0.75;;;;;;;27.80;37.35;94853.00;5044016;28;20268;-74
2023/09/13 06:13:35;;;;;;;1.15;0.90;;;;;;;27.77;37.21;94853.06;5045876;28;21028;-73
2023/09/13 06:16:02;;;;;;;1.42;1.00;;;;;;;28.12;36.69;94855.03;5043398;28;21359;-74
2023/09/13 06:18:36;;;;;;;1.17;0.75;;;;;;;27.18;37.54;94862.28;5043821;28;20213;-74
2023/09/13 06:21:04;;;;;;;1.52;0.95;;;;;;;28.39;36.54;94859.56;5046677;28;20708;-75
2023/09/13 06:23:45;;;;;;;1.17;1.08;;;;;;;28.32;36.00;94849.38;5046640;28;20239;-76
2023/09/13 06:26:12;;;;;;;0.70;0.70;;;;;;;28.15;36.33;94854.16;5045938;28;20298;-76
2023/09/13 06:28:42;;;;;;;0.75;0.68;;;;;;;28.40;35.51;94845.19;5044468;28;20200;-74
2023/09/13 06:31:09;;;;;;;0.73;0.73;;;;;;;28.85;35.00;94852.78;5042764;28;20199;-74
2023/09/13 06:33:36;;;;;;;1.77;0.98;;;;;;;29.40;34.80;94857.22;5049176;28;20207;-75
2023/09/13 06:36:05;;;;;;;0.70;0.70;;;;;;;28.71;34.22;94848.34;5044789;28;20200;-76
2023/09/13 06:38:33;;;;;;;1.02;0.93;;;;;;;28.19;35.56;94854.84;5050439;28;20206;-74
2023/09/13 06:41:02;;;;;;;3.20;0.98;;;;;;;28.02;35.55;94869.97;5046544;28;21091;-75
2023/09/13 06:43:29;;;;;;;1.98;1.17;;;;;;;28.75;34.22;94862.19;5042687;28;20254;-75
2023/09/13 06:46:02;;;;;;;1.15;0.98;;;;;;;28.81;34.15;94864.06;5044320;28;20290;-76
2023/09/13 06:48:29;;;;;;;1.30;0.88;;;;;;;29.08;34.26;94871.28;5043560;28;20199;-77
2023/09/13 06:50:56;;;;;;;0.73;0.70;;;;;;;27.38;36.42;94871.41;5039345;28;20219;-77
2023/09/13 06:53:23;;;;;;;1.60;1.17;;;;;;;28.50;34.91;94871.22;5047768;28;20208;-76
2023/09/13 06:55:51;;;;;;;1.85;1.15;;;;;;;28.37;35.07;94873.16;5044223;28;20204;-76
2023/09/13 06:58:19;;;;;;;2.05;0.98;;;;;;;28.79;34.36;94872.06;5041016;28;20235;-76
2023/09/13 07:00:46;;;;;;;1.38;1.08;;;;;;;27.55;35.23;94869.44;5045899;28;20203;-77
2023/09/13 07:03:13;;;;;;;1.23;1.10;;;;;;;26.69;37.21;94875.91;5049700;28;20204;-76
2023/09/13 07:05:42;;;;;;;0.70;0.70;;;;;;;27.42;37.02;94869.31;5038178;28;20656;-76
2023/09/13 07:08:09;;;;;;;0.82;0.73;;;;;;;27.06;36.83;94876.84;5042795;28;20238;-77
2023/09/13 07:10:38;;;;;;;0.55;0.55;;;;;;;27.17;36.44;94880.19;5043760;28;20208;-77
2023/09/13 07:13:05;;;;;;;1.00;0.70;;;;;;;27.49;36.28;94873.94;5042223;28;20735;-76
2023/09/13 07:15:34;;;;;;;1.13;0.80;;;;;;;27.15;36.95;94880.63;5036977;28;20195;-76
2023/09/13 07:18:01;;;;;;;0.73;0.65;;;;;;;28.32;34.93;94868.09;5041606;28;20906;-74
2023/09/13 07:20:28;;;;;;;1.13;0.93;;;;;;;28.51;34.97;94868.00;5042833;28;20223;-75
2023/09/13 07:22:54;;;;;;;1.63;1.30;;;;;;;28.67;34.65;94858.03;5049989;28;20211;-75
2023/09/13 07:25:21;;;;;;;1.35;0.90;;;;;;;28.34;35.54;94863.66;5050108;28;20208;-77
2023/09/13 07:27:50;;;;;;;1.40;0.98;;;;;;;28.18;35.76;94875.59;5049416;28;20231;-75
2023/09/13 07:30:23;;;;;;;1.13;0.90;;;;;;;27.95;35.93;94872.94;5042845;28;20204;-74
2023/09/13 07:32:51;;;;;;;1.30;1.05;;;;;;;26.64;37.68;94872.84;5044727;28;20204;-75
2023/09/13 07:35:20;;;;;;;1.02;0.80;;;;;;;25.85;39.11;94878.88;5052452;28;20199;-74
2023/09/13 07:37:48;;;;;;;1.30;0.85;;;;;;;25.60;39.26;94879.22;5053080;28;20220;-77
2023/09/13 07:40:15;;;;;;;1.17;1.08;;;;;;;25.91;39.82;94871.66;5053226;28;20534;-75
2023/09/13 07:42:42;;;;;;;2.63;1.13;;;;;;;25.76;39.21;94875.84;5053123;28;20572;-77
2023/09/13 07:45:09;;;;;;;0.80;0.73;;;;;;;25.49;40.20;94873.84;5053840;28;20208;-75
2023/09/13 07:47:37;;;;;;;1.48;1.00;;;;;;;24.96;39.25;94876.50;5053137;28;20227;-74
2023/09/13 07:50:06;;;;;;;1.92;1.13;;;;;;;25.23;38.10;94876.56;5052821;28;20218;-75
2023/09/13 07:52:33;;;;;;;0.98;0.90;;;;;;;25.77;37.84;94866.31;5053238;28;20618;-75
2023/09/13 07:55:00;;;;;;;6.97;1.80;;;;;;;26.17;37.09;94868.06;5052488;28;20619;-75
2023/09/13 07:57:27;;;;;;;1.25;0.75;;;;;;;25.60;39.19;94872.88;5053329;28;20575;-75
2023/09/13 07:59:54;;;;;;;0.80;0.75;;;;;;;25.09;39.73;94872.78;5053005;28;20635;-75
2023/09/13 08:02:20;;;;;;;0.68;0.63;;;;;;;24.74;40.12;94873.94;5060991;28;20561;-75
2023/09/13 08:04:49;;;;;;;1.15;1.00;;;;;;;24.48;41.11;94880.13;5052617;28;20627;-75
2023/09/13 08:07:18;;;;;;;0.70;0.70;;;;;;;24.74;40.73;94876.69;5051814;28;20250;-75
2023/09/13 08:09:44;;;;;;;1.35;0.80;;;;;;;25.34;40.31;94866.91;5052662;28;20649;-76
2023/09/13 08:12:11;;;;;;;0.80;0.80;;;;;;;25.93;39.79;94866.47;5052390;28;20236;-74
2023/09/13 08:14:38;;;;;;;1.05;0.95;;;;;;;25.90;39.46;94863.75;5052770;28;20570;-74
2023/09/13 08:17:05;;;;;;;1.38;1.08;;;;;;;25.72;39.37;94859.25;5052264;28;20204;-76
2023/09/13 08:19:33;;;;;;;1.25;0.73;;;;;;;26.08;38.78;94864.25;5052549;28;20684;-75
2023/09/13 08:22:00;;;;;;;1.15;0.60;;;;;;;26.19;37.88;94864.88;5052267;28;20318;-75
2023/09/13 08:24:28;;;;;;;4.00;1.58;;;;;;;25.45;39.55;94862.00;5052499;28;20208;-75
2023/09/13 08:26:54;;;;;;;0.98;0.80;;;;;;;25.87;39.63;94859.81;5051676;28;20227;-76
2023/09/13 08:29:21;;;;;;;0.80;0.80;;;;;;;26.02;39.40;94861.16;5052230;28;20211;-75
2023/09/13 08:31:48;;;;;;;1.33;1.00;;;;;;;25.83;39.95;94853.56;5052503;28;20730;-76
2023/09/13 08:34:15;;;;;;;0.80;0.70;;;;;;;25.55;40.62;94860.28;5052055;28;20208;-75
2023/09/13 08:36:43;;;;;;;1.10;0.77;;;;;;;25.17;41.13;94859.59;5052796;28;20254;-75
2023/09/13 08:39:10;;;;;;;1.85;1.15;;;;;;;24.86;42.03;94869.06;5052307;28;20730;-76
2023/09/13 08:41:38;;;;;;;1.90;1.00;;;;;;;25.23;41.08;94849.63;5052233;28;20203;-75
2023/09/13 08:44:07;;;;;;;1.13;1.02;;;;;;;25.58;41.00;94858.63;5051548;28;20212;-75
2023/09/13 08:46:35;;;;;;;1.50;0.98;;;;;;;25.77;40.20;94844.91;5052391;28;20208;-75
2023/09/13 08:49:05;;;;;;;1.63;0.85;;;;;;;26.07;40.32;94846.81;5052188;28;20203;-76
2023/09/13 08:51:35;;;;;;;1.50;1.05;;;;;;;26.23;41.07;94846.16;5052362;28;20293;-75
2023/09/13 08:54:03;;;;;;;1.10;0.73;;;;;;;26.09;41.24;94832.50;5052565;28;20564;-74
2023/09/13 08:56:32;;;;;;;1.45;1.30;;;;;;;25.89;41.58;94839.97;5052237;28;20212;-75
2023/09/13 08:59:02;;;;;;;0.85;0.75;;;;;;;25.99;40.13;94833.47;5051665;28;20625;-75
2023/09/13 09:01:30;;;;;;;1.02;0.85;;;;;;;26.54;40.16;94835.69;5059830;28;20265;-75
2023/09/13 09:03:57;;;;;;;1.02;0.75;;;;;;;25.98;40.10;94835.44;5039116;28;20207;-74
2023/09/13 09:06:25;;;;;;;1.55;0.90;;;;;;;26.26;40.29;94836.16;5051728;28;20219;-76
2023/09/13 09:08:54;;;;;;;1.20;1.10;;;;;;;26.54;39.58;94830.13;5051811;28;20309;-76
2023/09/13 09:11:24;;;;;;;1.88;1.17;;;;;;;26.41;39.64;94832.75;5051597;28;20302;-78
2023/09/13 09:13:54;;;;;;;1.23;0.70;;;;;;;26.61;40.24;94821.69;5051091;28;20316;-78
2023/09/13 09:16:23;;;;;;;1.00;0.90;;;;;;;26.49;38.85;94825.09;5048625;28;20208;-79
2023/09/13 09:22:12;;;;;;;1.08;0.80;;;;;;;26.39;37.73;94826.03;5034994;28;20731;-79
2023/09/13 09:24:40;;;;;;;0.95;0.80;;;;;;;26.62;38.54;94819.69;5051198;28;20216;-79
2023/09/13 09:30:31;;;;;;;1.38;0.85;;;;;;;26.90;36.58;94831.03;5042609;28;20270;-79
2023/09/13 09:33:06;;;;;;;0.85;0.70;;;;;;;27.28;36.58;94821.53;5046911;28;20219;-76
2023/09/13 09:35:34;;;;;;;0.98;0.88;;;;;;;26.83;36.50;94831.16;5042879;28;20223;-79
2023/09/13 09:38:01;;;;;;;0.93;0.80;;;;;;;26.30;37.09;94815.50;5051533;28;20663;-79
2023/09/13 09:40:28;;;;;;;0.57;0.57;;;;;;;26.40;37.81;94819.28;5050954;28;20561;-78
2023/09/13 09:42:57;;;;;;;1.20;0.88;;;;;;;26.69;37.14;94816.75;5051052;28;20274;-78
2023/09/13 09:45:25;;;;;;;2.88;0.88;;;;;;;27.06;37.31;94813.63;5049263;28;20265;-79
2023/09/13 09:47:52;;;;;;;2.28;0.90;;;;;;;27.35;35.74;94811.03;5050506;28;20223;-78
2023/09/13 09:50:20;;;;;;;1.48;1.13;;;;;;;27.53;36.04;94803.06;5050870;28;20623;-79
2023/09/13 09:52:50;;;;;;;1.35;0.88;;;;;;;27.19;36.50;94797.09;5050422;28;20596;-79
2023/09/13 09:55:21;;;;;;;8.25;1.88;;;;;;;27.54;36.27;94801.06;5050219;28;20539;-78
2023/09/13 09:57:49;;;;;;;0.95;0.85;;;;;;;27.62;35.76;94796.16;5050843;28;20184;-79
2023/09/13 10:00:16;;;;;;;0.93;0.75;;;;;;;27.90;35.80;94795.47;5050653;28;20207;-78
2023/09/13 10:02:45;;;;;;;3.20;1.02;;;;;;;27.63;35.93;94786.56;5055276;28;20212;-79
2023/09/13 10:05:13;;;;;;;1.27;1.10;;;;;;;27.68;35.63;94788.84;5045685;28;20239;-79
2023/09/13 10:07:41;;;;;;;0.90;0.77;;;;;;;28.06;36.77;94792.69;5045435;28;20227;-78
2023/09/13 10:10:10;;;;;;;3.15;1.17;;;;;;;27.99;34.94;94787.28;5048253;28;20211;-78
2023/09/13 10:12:44;;;;;;;1.20;1.00;;;;;;;28.13;35.12;94791.72;5047745;28;20677;-78
2023/09/13 10:15:12;;;;;;;1.80;0.88;;;;;;;28.41;34.38;94781.88;5046697;28;20313;-77
2023/09/13 10:17:41;;;;;;;1.80;0.98;;;;;;;28.43;34.56;94777.41;5043839;28;20196;-78
2023/09/13 10:20:11;;;;;;;1.55;1.00;;;;;;;28.43;34.02;94779.44;5049502;28;20599;-79
2023/09/13 10:22:43;;;;;;;0.70;0.70;;;;;;;28.64;34.64;94778.84;5044870;28;20283;-79
2023/09/13 10:25:14;;;;;;;0.75;0.65;;;;;;;28.64;34.14;94764.91;5045024;28;20569;-79
2023/09/13 10:27:45;;;;;;;0.82;0.80;;;;;;;28.55;34.07;94767.56;5046053;28;20600;-79
2023/09/13 10:30:16;;;;;;;0.90;0.85;;;;;;;28.44;34.40;94772.59;5044816;28;20615;-78
2023/09/13 10:32:48;;;;;;;1.20;0.95;;;;;;;28.17;34.55;94770.88;5046221;28;20596;-79
2023/09/13 10:35:17;;;;;;;0.80;0.80;;;;;;;28.20;34.83;94770.06;5048150;28;20227;-78
2023/09/13 10:37:53;;;;;;;1.35;0.98;;;;;;;28.05;34.99;94760.47;5044033;28;20285;-77
2023/09/13 10:40:23;;;;;;;1.10;0.90;;;;;;;28.44;34.60;94762.25;5043875;28;20199;-78
2023/09/13 10:42:50;;;;;;;1.00;0.90;;;;;;;28.87;33.37;94756.28;5043259;28;20196;-78
2023/09/13 10:45:18;;;;;;;0.93;0.70;;;;;;;29.06;33.02;94762.13;5043409;28;20211;-78
2023/09/13 10:47:47;;;;;;;1.42;0.60;;;;;;;28.77;33.75;94757.34;5044254;28;20220;-78
2023/09/13 10:50:15;;;;;;;1.23;0.88;;;;;;;28.70;34.48;94757.53;5046764;28;20196;-78
2023/09/13 10:52:43;;;;;;;1.90;0.60;;;;;;;28.49;34.20;94758.94;5043195;28;20207;-78
2023/09/13 10:55:13;;;;;;;0.95;0.65;;;;;;;28.75;34.37;94747.84;5044430;28;20207;-77
2023/09/13 10:57:41;;;;;;;0.80;0.80;;;;;;;29.04;33.73;94736.69;5045079;28;20204;-77
2023/09/13 11:00:10;;;;;;;1.17;0.70;;;;;;;29.48;32.90;94738.53;5045387;28;20634;-79
2023/09/13 11:02:37;;;;;;;1.00;0.82;;;;;;;29.35;33.00;94734.94;5048024;28;20318;-77
2023/09/13 11:05:06;;;;;;;1.13;0.95;;;;;;;29.51;32.88;94736.84;5044835;28;20203;-80
2023/09/13 11:07:33;;;;;;;0.70;0.70;;;;;;;29.69;32.60;94728.66;5044649;28;20234;-77
2023/09/13 11:10:05;;;;;;;1.45;1.27;;;;;;;29.79;32.68;94729.56;5047321;28;20303;-77
2023/09/13 11:12:48;;;;;;;1.15;0.80;;;;;;;29.12;32.60;94738.81;5049636;28;20228;-78
2023/09/13 11:15:19;;;;;;;0.80;0.80;;;;;;;29.01;33.44;94724.41;5046556;28;20693;-74
2023/09/13 11:17:46;;;;;;;1.45;0.63;;;;;;;28.98;32.69;94730.84;5048446;28;20258;-74
2023/09/13 11:20:27;;;;;;;2.90;1.00;;;;;;;29.36;32.82;94725.31;5046779;28;20682;-77
2023/09/13 11:23:08;;;;;;;0.88;0.85;;;;;;;29.32;31.99;94713.47;5050795;28;20207;-74
2023/09/13 11:25:36;;;;;;;1.30;1.10;;;;;;;29.19;32.82;94715.50;5050123;28;20196;-76
2023/09/13 11:28:10;;;;;;;1.30;1.20;;;;;;;29.26;32.64;94713.25;5051658;28;20227;-74
2023/09/13 11:30:52;;;;;;;0.80;0.80;;;;;;;29.20;33.00;94711.47;5050636;28;20250;-74
2023/09/13 11:33:19;;;;;;;0.80;0.70;;;;;;;29.07;32.57;94713.47;5052721;28;20214;-73
2023/09/13 11:35:46;;;;;;;0.80;0.80;;;;;;;29.12;32.56;94710.13;5039832;28;20211;-72
2023/09/13 11:38:13;;;;;;;0.98;0.75;;;;;;;29.65;32.26;94703.66;5052635;28;20714;-74
2023/09/13 11:40:46;;;;;;;1.05;0.93;;;;;;;29.87;31.33;94702.94;5051730;28;20212;-76
2023/09/13 11:43:21;;;;;;;1.52;0.80;;;;;;;29.93;31.56;94689.97;5050662;28;20601;-74
2023/09/13 11:45:50;;;;;;;1.50;0.80;;;;;;;30.40;30.88;94699.09;5053278;28;20560;-75